Rhine, GA

4:36 PM EDT on August 31, 2015 (GMT -0400)
Abbeville, GA | | Change Station
CLOSE
Current Station
Personal Weather Station
Location: Abbeville, GA
Elevation: 253 ft
Nearby Weather Stations

Elev 253 ft 32.00 °N, 83.32 °W | Updated 14 minutes ago

Partly Cloudy
Partly Cloudy
90.1 °F
Feels Like 99 °F
N
1.7
Wind Variable Wind from WSW

Today
High -- | Low -- °F
--% Chance of Precip.
Yesterday
High -- | Low -- °F
Precip. -- in
7:07 AM 7:58 PM
Waning Gibbous, 94% visible
Pressure 30.08 in
Visibility 10.0 miles
Clouds Scattered Clouds 4300 ft
Scattered Clouds 4800 ft
Heat Index 99 °F
Dew Point 73 °F
Humidity 58%
Rainfall 0.00 in
Snow Depth Not available.
UV 6 out of 12
Pollen 7.40 out of 12
Air Quality Not available.
Flu Activity Not available.
METAR KEZM 312015Z AUTO 06004KT 10SM SCT043 SCT048 30/21 A3008 RMK AO2 T02960211
Pressure 30.08 in
Visibility 10.0 miles
Clouds Scattered Clouds 4300 ft
Scattered Clouds 4800 ft
Heat Index 99 °F
Dew Point 73 °F
Humidity 58%
Rainfall 0.00 in
Snow Depth Not available.
UV 6 out of 12
Pollen 7.40 out of 12
Air Quality Not available.
Flu Activity Not available.
METAR KEZM 312015Z AUTO 06004KT 10SM SCT043 SCT048 30/21 A3008 RMK AO2 T02960211

10-Day Weather Forecast

×

Almanac

Astronomy

Aug. 31, 2015 Rise Set
Actual Time
Civil Twilight
Nautical Twilight
Astronomical Twilight
Moon
Length of Visible Light
Length of Day
Tomorrow will be .
, % of the Moon is Illuminated

Today's Extremes

State Highs State Lows

Community

WunderPhotos

Upload Photos

1,851,357 photos uploaded!

WunderBlogs® & News

Nearby

Air Quality

  Air Quality AQ Index Pollutant
Not available.

Snow Depth

Station Depth Elevation

Earthquake Activity

City Distance Mag. Time & Date
Minimum magnitude displayed is 2.5.

Coastal Water Temperatures

Place Temperature

Stations

Nearby Weather Stations

Station Location Temp. Windchill Dew Point Humidity Wind Precip. Elev Updated Type